Aviation Digital Data Service (ADDS)

Output produced by METARs form (1520 UTC 23 January 2019)
found at http://www.aviationweather.gov/metar/data/
 
Forecast for: KVNY (VAN NUYS , CA, US)
Text: KVNY 231136Z 2312/2412 01012KT P6SM SCT250
Forecast period: 1200 UTC 23 January 2019 to 0000 UTC 24 January 2019
Forecast type: FROM: standard forecast or significant change
Winds: from the N (10 degrees) at 14 MPH (12 knots; 6.2 m/s)
Visibility: 6 or more miles 10+ km)
Ceiling: at least 12,000 feet AGL
Clouds: scattered clouds at 25000 feet AGL
Weather: no significant weather forecast for this period
Text: FM240000 01007KT P6SM SKC
Forecast period: 0000 to 1200 UTC 24 January 2019
Forecast type: FROM: standard forecast or significant change
Winds: from the N (10 degrees) at 8 MPH (7 knots; 3.6 m/s)
Visibility: 6 or more miles 10+ km)
Clouds: clear skies
Weather: no significant weather forecast for this period